Time;durP1;ratioP1;P1;durP2;ratioP2;P2;SDS_P1;SDS_P2;PMS_P1;PMS_P2;Temp;Humidity;BMP_temperature;BMP_pressure;BME280_temperature;BME280_humidity;BME280_pressure;Samples;Min_cycle;Max_cycle;Signal;HPM_P1;HPM_P2
2021/04/08 00:01:59;;;;;;;13.32;3.88;;;8.30;95.40;;;;;;5031252;28;20021;-87
2021/04/08 00:04:25;;;;;;;17.17;4.15;;;8.30;95.80;;;;;;5047678;28;20120;-85
2021/04/08 00:06:51;;;;;;;13.38;3.40;;;8.30;95.60;;;;;;5014265;28;20171;-84
2021/04/08 00:09:16;;;;;;;13.25;3.33;;;8.20;95.70;;;;;;5047664;28;20041;-86
2021/04/08 00:11:42;;;;;;;10.85;2.88;;;8.20;95.70;;;;;;5031193;28;20067;-86
2021/04/08 00:14:08;;;;;;;14.38;3.47;;;8.20;95.70;;;;;;5047622;28;20021;-86
2021/04/08 00:16:34;;;;;;;11.77;3.60;;;8.20;95.80;;;;;;5047534;28;20353;-84
2021/04/08 00:18:59;;;;;;;14.30;4.45;;;8.20;95.90;;;;;;5047793;28;20057;-84
2021/04/08 00:21:25;;;;;;;15.88;3.70;;;8.20;95.90;;;;;;5031126;28;20497;-85
2021/04/08 00:23:51;;;;;;;22.23;4.35;;;8.20;96.00;;;;;;5031191;28;20590;-86
2021/04/08 00:26:17;;;;;;;16.27;4.63;;;8.20;96.00;;;;;;5030851;28;20033;-86
2021/04/08 00:28:42;;;;;;;11.40;3.38;;;8.30;96.00;;;;;;5047679;28;20074;-85
2021/04/08 00:31:08;;;;;;;17.13;4.20;;;8.30;96.00;;;;;;5014485;28;20029;-85
2021/04/08 00:33:34;;;;;;;14.20;4.50;;;8.40;95.90;;;;;;5047489;28;20049;-86
2021/04/08 00:36:00;;;;;;;18.75;4.57;;;8.40;95.80;;;;;;5047895;28;20060;-85
2021/04/08 00:38:25;;;;;;;13.77;4.20;;;8.40;95.80;;;;;;5030910;28;20028;-86
2021/04/08 00:40:51;;;;;;;17.95;4.15;;;8.40;95.80;;;;;;5030903;28;20039;-85
2021/04/08 00:43:17;;;;;;;12.60;3.20;;;8.30;95.80;;;;;;5047482;28;20379;-86
2021/04/08 00:45:43;;;;;;;15.32;3.33;;;8.30;95.80;;;;;;5014669;28;20120;-86
2021/04/08 00:48:09;;;;;;;11.45;2.53;;;8.30;95.80;;;;;;5047518;28;20067;-86
2021/04/08 00:50:34;;;;;;;12.45;2.72;;;8.20;95.80;;;;;;5030595;28;20037;-84
2021/04/08 00:53:04;;;;;;;14.43;3.55;;;8.20;95.90;;;;;;5030868;28;20040;-86
2021/04/08 00:55:39;;;;;;;8.48;3.05;;;8.10;95.80;;;;;;5047169;28;20033;-83
2021/04/08 00:58:05;;;;;;;12.70;2.83;;;8.10;95.90;;;;;;5047468;28;20031;-86
2021/04/08 01:00:33;;;;;;;11.70;2.88;;;8.10;95.90;;;;;;5047218;28;20029;-84
2021/04/08 01:02:59;;;;;;;13.75;3.63;;;8.10;96.00;;;;;;5030929;28;20041;-87
2021/04/08 01:05:25;;;;;;;15.50;3.30;;;8.00;96.00;;;;;;5047204;28;20031;-84
2021/04/08 01:07:51;;;;;;;16.27;3.92;;;8.00;96.10;;;;;;5047510;28;20021;-86
2021/04/08 01:10:20;;;;;;;10.30;2.40;;;8.00;96.10;;;;;;5014596;28;20096;-85
2021/04/08 01:12:46;;;;;;;7.70;2.00;;;8.00;96.10;;;;;;5047179;28;20031;-85
2021/04/08 01:15:12;;;;;;;10.48;2.80;;;7.90;96.00;;;;;;5047140;28;20053;-85
2021/04/08 01:17:47;;;;;;;16.85;2.97;;;7.90;96.10;;;;;;5048700;28;20021;-86
2021/04/08 01:20:43;;;;;;;11.07;2.80;;;7.90;96.10;;;;;;5051647;28;20024;-83
2021/04/08 01:23:27;;;;;;;11.48;2.33;;;7.80;96.20;;;;;;5051117;28;20139;-87
2021/04/08 01:26:30;;;;;;;15.48;2.58;;;7.80;96.10;;;;;;5052599;28;20117;-86
2021/04/08 01:29:17;;;;;;;12.38;2.28;;;7.80;96.10;;;;;;5051063;28;20063;-84
2021/04/08 01:31:43;;;;;;;14.63;2.45;;;7.90;96.10;;;;;;5052046;28;20491;-86
2021/04/08 01:34:13;;;;;;;10.00;2.33;;;7.80;96.00;;;;;;5050930;28;20045;-86
2021/04/08 01:36:41;;;;;;;13.88;2.83;;;7.80;96.00;;;;;;5051289;28;20022;-83
2021/04/08 01:39:10;;;;;;;9.65;2.30;;;7.80;96.00;;;;;;5051137;28;20495;-88
2021/04/08 01:41:42;;;;;;;14.80;2.65;;;7.80;96.10;;;;;;5052264;28;20393;-85
2021/04/08 01:44:14;;;;;;;4.30;2.15;;;7.80;96.10;;;;;;5050943;28;20025;-85
2021/04/08 01:46:43;;;;;;;11.95;3.47;;;7.80;96.10;;;;;;5052158;28;20036;-86
2021/04/08 01:49:11;;;;;;;10.93;2.22;;;7.80;96.10;;;;;;5052404;28;20021;-83
2021/04/08 01:51:37;;;;;;;14.88;2.60;;;7.80;96.10;;;;;;5050726;28;20032;-88
2021/04/08 01:54:06;;;;;;;11.73;2.47;;;7.80;96.10;;;;;;5033982;28;20021;-86
2021/04/08 01:56:35;;;;;;;14.00;2.60;;;7.80;96.10;;;;;;5050408;28;20031;-86
2021/04/08 01:59:01;;;;;;;10.43;2.35;;;7.80;96.10;;;;;;5050069;28;20025;-85
2021/04/08 02:01:28;;;;;;;14.82;2.90;;;7.80;96.20;;;;;;5033440;28;20128;-85
2021/04/08 02:03:56;;;;;;;10.00;1.90;;;7.80;96.20;;;;;;5033806;28;20029;-84
2021/04/08 02:06:29;;;;;;;11.00;2.85;;;7.80;96.10;;;;;;5050332;28;20120;-85
2021/04/08 02:08:56;;;;;;;8.88;2.40;;;7.80;96.10;;;;;;5051556;28;20068;-85
2021/04/08 02:11:24;;;;;;;17.30;2.55;;;7.80;96.10;;;;;;5017280;28;20033;-86
2021/04/08 02:13:50;;;;;;;10.70;2.80;;;7.80;96.10;;;;;;5050456;28;20489;-84
2021/04/08 02:16:19;;;;;;;13.93;2.55;;;7.70;96.10;;;;;;5051258;28;20036;-86
2021/04/08 02:18:47;;;;;;;7.50;2.57;;;7.70;96.10;;;;;;5049702;28;20017;-86
2021/04/08 02:21:14;;;;;;;6.85;2.03;;;7.70;96.10;;;;;;5034461;28;20029;-84
2021/04/08 02:23:41;;;;;;;10.80;2.55;;;7.70;96.10;;;;;;5050173;28;20036;-85
2021/04/08 02:26:10;;;;;;;9.25;2.10;;;7.70;96.10;;;;;;5017180;28;20036;-84
2021/04/08 02:28:38;;;;;;;8.98;1.83;;;7.70;96.20;;;;;;5051375;28;20032;-85
2021/04/08 02:31:04;;;;;;;11.93;2.40;;;7.70;96.20;;;;;;5032947;28;20519;-86
2021/04/08 02:33:31;;;;;;;11.23;2.10;;;7.60;96.10;;;;;;5032835;28;20515;-84
2021/04/08 02:35:59;;;;;;;7.25;2.35;;;7.60;96.20;;;;;;5016985;28;20036;-84
2021/04/08 02:38:28;;;;;;;11.25;2.60;;;7.60;96.20;;;;;;5050238;28;20027;-87
2021/04/08 02:40:55;;;;;;;11.60;4.05;;;7.60;96.20;;;;;;5049815;28;20021;-86
2021/04/08 02:43:21;;;;;;;10.25;2.30;;;7.60;96.20;;;;;;5050993;28;20104;-86
2021/04/08 02:45:47;;;;;;;7.68;2.60;;;7.60;96.20;;;;;;5049818;28;20454;-86
2021/04/08 02:48:15;;;;;;;10.68;2.60;;;7.60;96.20;;;;;;5049322;28;20040;-87
2021/04/08 02:50:43;;;;;;;8.77;2.47;;;7.60;96.20;;;;;;5049510;28;20029;-86
2021/04/08 02:53:32;;;;;;;12.85;2.58;;;7.60;96.20;;;;;;5032927;28;20111;-84
2021/04/08 02:56:30;;;;;;;13.48;2.72;;;7.60;96.20;;;;;;5049195;28;20021;-86
2021/04/08 02:59:02;;;;;;;11.13;3.20;;;7.50;96.20;;;;;;5048986;28;20098;-85
2021/04/08 03:01:29;;;;;;;10.20;2.45;;;7.50;96.20;;;;;;5050538;28;20021;-85
2021/04/08 03:03:58;;;;;;;11.57;2.78;;;7.50;96.20;;;;;;5050580;28;20447;-86
2021/04/08 03:06:25;;;;;;;20.67;3.10;;;7.60;96.20;;;;;;5049261;28;20029;-85
2021/04/08 03:08:56;;;;;;;8.48;2.75;;;7.50;96.20;;;;;;5049357;28;20040;-84
2021/04/08 03:11:29;;;;;;;12.77;3.05;;;7.50;96.20;;;;;;5048974;28;20112;-85
2021/04/08 03:14:01;;;;;;;13.38;3.88;;;7.50;96.20;;;;;;5049053;28;20025;-84
2021/04/08 03:16:33;;;;;;;9.70;2.47;;;7.50;96.30;;;;;;5049163;28;20021;-86
2021/04/08 03:19:00;;;;;;;9.95;3.28;;;7.50;96.30;;;;;;5048876;28;20048;-85
2021/04/08 03:21:28;;;;;;;9.82;2.78;;;7.50;96.30;;;;;;5049087;28;20025;-85
2021/04/08 03:23:56;;;;;;;12.00;2.40;;;7.50;96.40;;;;;;5032452;28;20055;-86
2021/04/08 03:26:24;;;;;;;13.05;2.40;;;7.50;96.40;;;;;;5049011;28;20060;-84
2021/04/08 03:28:50;;;;;;;6.82;2.50;;;7.50;96.50;;;;;;5048997;28;20035;-85
2021/04/08 03:31:19;;;;;;;12.32;2.67;;;7.50;96.50;;;;;;5048435;28;20094;-85
2021/04/08 03:33:45;;;;;;;13.25;2.55;;;7.50;96.50;;;;;;5048268;28;20072;-85
2021/04/08 03:36:13;;;;;;;15.40;3.05;;;7.50;96.60;;;;;;5015152;28;20037;-85
2021/04/08 03:38:40;;;;;;;18.10;2.88;;;7.50;96.60;;;;;;5048114;28;20021;-85
2021/04/08 03:41:06;;;;;;;7.30;2.42;;;7.50;96.70;;;;;;5030880;28;20411;-84
2021/04/08 03:43:33;;;;;;;9.63;2.97;;;7.50;96.70;;;;;;5047893;28;20021;-84
2021/04/08 03:46:01;;;;;;;10.80;2.30;;;7.50;96.80;;;;;;5031613;28;20029;-87
2021/04/08 03:48:30;;;;;;;4.40;2.08;;;7.50;96.80;;;;;;5048211;28;20041;-85
2021/04/08 03:50:56;;;;;;;11.63;3.25;;;7.50;96.80;;;;;;5048084;28;20078;-84
2021/04/08 03:53:23;;;;;;;10.77;3.40;;;7.60;96.80;;;;;;5047849;28;20032;-84
2021/04/08 03:55:48;;;;;;;9.50;2.55;;;7.50;96.70;;;;;;5047699;28;20044;-83
2021/04/08 03:58:16;;;;;;;9.05;2.72;;;7.50;96.70;;;;;;5047934;28;20025;-85
2021/04/08 04:00:42;;;;;;;8.55;2.33;;;7.50;96.80;;;;;;5047789;28;20067;-84
2021/04/08 04:03:09;;;;;;;3.75;1.92;;;7.50;96.80;;;;;;5047656;28;20021;-85
2021/04/08 04:05:38;;;;;;;8.45;2.53;;;7.50;96.90;;;;;;5048049;28;20392;-85
2021/04/08 04:08:04;;;;;;;10.27;3.65;;;7.50;96.90;;;;;;5047560;28;20035;-85
2021/04/08 04:10:35;;;;;;;11.77;2.17;;;7.50;96.90;;;;;;5047491;28;20039;-84
2021/04/08 04:13:01;;;;;;;10.07;2.80;;;7.40;96.90;;;;;;5047670;28;20033;-84
2021/04/08 04:15:28;;;;;;;12.00;2.28;;;7.50;96.90;;;;;;5047531;28;20044;-85
2021/04/08 04:17:54;;;;;;;7.72;2.30;;;7.40;96.90;;;;;;5047614;28;20029;-85
2021/04/08 04:20:20;;;;;;;10.55;2.60;;;7.40;96.90;;;;;;5030994;28;20025;-83
2021/04/08 04:22:45;;;;;;;11.93;2.25;;;7.40;97.00;;;;;;5047579;28;20047;-86
2021/04/08 04:25:12;;;;;;;13.98;2.25;;;7.40;97.00;;;;;;5047544;28;20033;-85
2021/04/08 04:27:38;;;;;;;8.38;2.05;;;7.30;97.00;;;;;;5047151;28;20033;-85
2021/04/08 04:30:06;;;;;;;6.80;2.03;;;7.30;97.00;;;;;;5030690;28;20498;-85
2021/04/08 04:32:32;;;;;;;8.93;1.67;;;7.30;97.00;;;;;;5046979;28;20060;-87
2021/04/08 04:34:57;;;;;;;7.95;2.17;;;7.30;97.00;;;;;;5030408;28;20037;-85
2021/04/08 04:37:23;;;;;;;11.90;2.40;;;7.30;97.00;;;;;;5047193;28;20066;-86
2021/04/08 04:39:49;;;;;;;13.98;2.25;;;7.20;97.00;;;;;;5047112;28;20388;-85
2021/04/08 04:42:15;;;;;;;7.50;2.22;;;7.30;97.10;;;;;;5047197;28;20464;-86
2021/04/08 04:44:41;;;;;;;13.23;2.35;;;7.20;97.10;;;;;;5046884;28;20405;-85
2021/04/08 04:47:07;;;;;;;12.75;2.45;;;7.20;97.10;;;;;;5030462;28;20052;-86
2021/04/08 04:49:33;;;;;;;11.68;3.25;;;7.10;97.00;;;;;;5046922;28;20029;-82
2021/04/08 04:51:59;;;;;;;10.98;3.35;;;7.10;97.00;;;;;;5030949;28;20037;-86
2021/04/08 04:54:25;;;;;;;7.57;2.40;;;7.10;97.00;;;;;;5050648;28;20021;-85
2021/04/08 04:56:50;;;;;;;12.57;2.40;;;7.00;97.10;;;;;;5051410;28;20071;-86
2021/04/08 04:59:16;;;;;;;15.98;2.65;;;7.10;97.10;;;;;;5050922;28;20472;-83
2021/04/08 05:01:42;;;;;;;11.43;2.55;;;7.10;97.20;;;;;;5052112;28;20021;-85
2021/04/08 05:04:08;;;;;;;6.72;1.90;;;7.10;97.10;;;;;;5052101;28;20028;-84
2021/04/08 05:06:34;;;;;;;6.72;1.92;;;7.00;97.10;;;;;;5034527;28;20033;-83
2021/04/08 05:09:00;;;;;;;6.88;2.25;;;7.00;97.10;;;;;;5051046;28;20029;-85
2021/04/08 05:11:27;;;;;;;7.22;2.20;;;7.00;97.10;;;;;;5034302;28;20029;-85
2021/04/08 05:13:53;;;;;;;7.72;2.28;;;6.90;97.00;;;;;;5050753;28;20082;-85
2021/04/08 05:16:19;;;;;;;6.05;1.98;;;6.90;97.00;;;;;;5034192;28;20029;-86
2021/04/08 05:18:44;;;;;;;9.60;2.22;;;6.80;97.00;;;;;;5050634;28;20029;-85
2021/04/08 05:21:11;;;;;;;7.72;1.77;;;6.80;97.00;;;;;;5034208;28;20076;-85
2021/04/08 05:23:38;;;;;;;5.55;2.05;;;6.70;97.10;;;;;;5034159;28;20481;-87
2021/04/08 05:26:04;;;;;;;6.28;2.25;;;6.70;97.20;;;;;;5034334;28;20029;-84
2021/04/08 05:28:30;;;;;;;7.40;2.40;;;6.70;97.30;;;;;;5050753;28;20078;-84
2021/04/08 05:30:56;;;;;;;10.93;2.22;;;6.70;97.30;;;;;;5033925;28;20412;-85
2021/04/08 05:33:22;;;;;;;7.68;1.88;;;6.80;97.40;;;;;;5050143;28;20053;-85
2021/04/08 05:35:47;;;;;;;8.68;2.10;;;6.80;97.30;;;;;;5033893;28;20426;-83
2021/04/08 05:38:13;;;;;;;8.98;2.30;;;6.80;97.30;;;;;;5050567;28;20022;-85
2021/04/08 05:40:39;;;;;;;12.90;2.92;;;6.80;97.30;;;;;;5033834;28;20040;-86
2021/04/08 05:43:05;;;;;;;10.90;2.15;;;6.80;97.40;;;;;;5050178;28;20057;-83
2021/04/08 05:45:32;;;;;;;10.40;2.63;;;6.80;97.40;;;;;;5034140;28;20455;-84
2021/04/08 05:47:58;;;;;;;7.13;2.13;;;6.80;97.50;;;;;;5050378;28;20025;-86
2021/04/08 05:50:23;;;;;;;9.57;3.00;;;6.80;97.50;;;;;;5050190;28;20395;-86
2021/04/08 05:52:49;;;;;;;6.80;2.17;;;6.80;97.40;;;;;;5050762;28;20025;-83
2021/04/08 05:55:15;;;;;;;7.78;2.45;;;6.80;97.40;;;;;;5051508;28;20102;-84
2021/04/08 05:57:41;;;;;;;7.45;2.13;;;6.70;97.30;;;;;;5051541;28;20098;-85
2021/04/08 06:00:09;;;;;;;9.55;2.70;;;6.70;97.30;;;;;;5050229;28;20021;-87
2021/04/08 06:02:35;;;;;;;10.27;2.47;;;6.60;97.40;;;;;;5033363;28;20025;-83
2021/04/08 06:05:01;;;;;;;10.25;2.40;;;6.60;97.50;;;;;;5050012;28;20032;-68
2021/04/08 06:07:26;;;;;;;7.68;2.50;;;6.60;97.60;;;;;;5050645;28;20041;-69
2021/04/08 06:09:53;;;;;;;12.25;2.65;;;6.70;97.70;;;;;;5050947;28;20102;-84
2021/04/08 06:12:19;;;;;;;8.57;2.33;;;6.80;97.60;;;;;;5049821;28;20028;-85
2021/04/08 06:14:46;;;;;;;8.15;2.47;;;6.80;97.60;;;;;;5033917;28;20519;-84
2021/04/08 06:17:12;;;;;;;6.60;2.45;;;6.80;97.60;;;;;;5018131;28;20522;-84
2021/04/08 06:19:37;;;;;;;10.40;2.20;;;6.90;97.50;;;;;;5016849;28;20120;-86
2021/04/08 06:22:04;;;;;;;7.85;2.35;;;7.00;97.50;;;;;;5049988;28;20021;-85
2021/04/08 06:24:29;;;;;;;6.15;2.55;;;7.00;97.50;;;;;;5049413;28;20033;-84
2021/04/08 06:26:56;;;;;;;22.98;3.65;;;7.10;97.50;;;;;;5049976;28;20029;-86
2021/04/08 06:29:21;;;;;;;14.65;2.38;;;7.20;97.50;;;;;;5051182;28;20040;-84
2021/04/08 06:31:50;;;;;;;9.93;2.72;;;7.20;97.50;;;;;;5049861;28;20106;-85
2021/04/08 06:34:16;;;;;;;10.18;2.33;;;7.30;97.40;;;;;;5049680;28;20033;-86
2021/04/08 06:36:42;;;;;;;10.18;2.22;;;7.40;97.40;;;;;;5049689;28;20442;-84
2021/04/08 06:39:08;;;;;;;12.02;2.33;;;7.50;97.40;;;;;;5050458;28;20049;-85
2021/04/08 06:41:38;;;;;;;8.30;2.50;;;7.50;97.30;;;;;;5049678;28;20031;-86
2021/04/08 06:44:07;;;;;;;11.07;2.50;;;7.60;97.30;;;;;;5032317;28;20028;-86
2021/04/08 06:46:40;;;;;;;8.52;2.17;;;7.70;97.20;;;;;;5049341;28;20084;-84
2021/04/08 06:49:36;;;;;;;12.15;2.00;;;7.70;97.10;;;;;;5049213;28;20163;-86
2021/04/08 06:52:03;;;;;;;6.95;2.22;;;7.80;97.00;;;;;;5049756;28;20163;-84
2021/04/08 06:54:29;;;;;;;6.45;2.35;;;7.80;96.90;;;;;;5049615;28;20021;-84
2021/04/08 06:56:55;;;;;;;7.03;1.90;;;7.90;97.10;;;;;;5015855;28;20024;-85
2021/04/08 06:59:21;;;;;;;5.70;2.10;;;8.00;96.90;;;;;;5049043;28;20025;-86
2021/04/08 07:01:47;;;;;;;7.35;2.88;;;8.00;96.90;;;;;;5032887;28;20090;-85
2021/04/08 07:04:14;;;;;;;6.63;2.58;;;8.10;96.80;;;;;;5049254;28;20024;-86
2021/04/08 07:06:40;;;;;;;9.82;2.58;;;8.20;96.90;;;;;;5033425;28;20040;-83
2021/04/08 07:09:09;;;;;;;7.78;2.97;;;8.30;96.80;;;;;;5049398;28;20028;-83
2021/04/08 07:11:35;;;;;;;7.38;2.25;;;8.50;96.80;;;;;;5049686;28;20033;-85
2021/04/08 07:14:05;;;;;;;8.95;2.05;;;8.70;96.70;;;;;;5033285;28;20029;-82
2021/04/08 07:16:32;;;;;;;7.47;2.67;;;8.90;96.50;;;;;;5049934;28;20033;-84
2021/04/08 07:18:58;;;;;;;6.63;1.85;;;9.00;96.10;;;;;;5049151;28;20025;-83
2021/04/08 07:21:28;;;;;;;9.13;1.60;;;9.10;95.80;;;;;;5050595;28;20489;-83
2021/04/08 07:24:14;;;;;;;7.53;3.03;;;9.20;95.60;;;;;;5049157;28;20036;-85
2021/04/08 07:26:55;;;;;;;5.00;1.88;;;9.30;95.50;;;;;;5050369;28;20170;-87
2021/04/08 07:29:44;;;;;;;11.75;2.30;;;9.40;95.30;;;;;;5050087;28;20525;-85
2021/04/08 07:32:12;;;;;;;7.43;1.90;;;9.50;95.00;;;;;;5049707;28;20481;-84
2021/04/08 07:34:41;;;;;;;6.70;2.05;;;9.60;94.90;;;;;;5050435;28;20025;-83
2021/04/08 07:37:08;;;;;;;6.78;1.80;;;9.60;94.80;;;;;;5050892;28;20158;-83
2021/04/08 07:39:39;;;;;;;3.88;1.55;;;9.70;94.70;;;;;;5048562;28;20036;-86
2021/04/08 07:42:11;;;;;;;5.50;1.88;;;9.80;94.50;;;;;;5050202;28;20029;-85
2021/04/08 07:44:51;;;;;;;10.27;2.00;;;10.00;94.40;;;;;;5048220;28;20499;-84
2021/04/08 07:47:44;;;;;;;12.73;2.22;;;10.10;93.90;;;;;;5050016;28;20480;-85
2021/04/08 07:50:17;;;;;;;6.70;2.08;;;10.20;93.70;;;;;;5048049;28;20029;-84
2021/04/08 07:52:46;;;;;;;6.85;2.10;;;10.20;93.40;;;;;;5050232;28;20025;-86
2021/04/08 07:55:20;;;;;;;;;;;10.30;93.10;;;;;;5050285;28;20029;-86
2021/04/08 07:57:57;;;;;;;8.00;2.00;;;10.40;93.10;;;;;;5048100;28;19992;-84
2021/04/08 08:00:36;;;;;;;13.23;1.77;;;10.40;92.90;;;;;;5049719;28;20025;-85
2021/04/08 08:03:08;;;;;;;7.20;1.95;;;10.50;92.90;;;;;;5050007;28;20067;-84
2021/04/08 08:05:41;;;;;;;8.32;1.90;;;10.50;92.70;;;;;;5050108;28;20430;-83
2021/04/08 08:08:17;;;;;;;5.55;1.95;;;10.60;92.40;;;;;;5047955;28;20025;-85
2021/04/08 08:10:55;;;;;;;5.50;1.52;;;10.50;92.20;;;;;;5048368;28;20048;-85
2021/04/08 08:13:31;;;;;;;10.18;2.75;;;10.60;92.10;;;;;;5049278;28;20025;-84
2021/04/08 08:15:59;;;;;;;3.33;1.70;;;10.70;92.40;;;;;;5047865;28;20407;-85
2021/04/08 08:18:25;;;;;;;6.45;1.67;;;10.80;92.00;;;;;;5047024;28;20055;-86
2021/04/08 08:20:54;;;;;;;7.78;1.85;;;10.80;91.90;;;;;;5048414;28;20035;-83
2021/04/08 08:23:33;;;;;;;4.53;1.70;;;11.10;92.30;;;;;;5048296;28;20316;-84
2021/04/08 08:26:31;;;;;;;10.32;2.53;;;11.70;92.50;;;;;;5047942;28;20033;-87
2021/04/08 08:29:20;;;;;;;8.35;1.83;;;12.30;91.80;;;;;;5047069;28;20458;-84
2021/04/08 08:31:55;;;;;;;3.90;1.60;;;12.90;90.60;;;;;;5048134;28;20052;-84
2021/04/08 08:34:34;;;;;;;6.55;2.15;;;13.00;89.00;;;;;;5048357;28;20060;-85
2021/04/08 08:37:03;;;;;;;7.57;2.53;;;12.70;86.60;;;;;;5047958;28;20208;-83
2021/04/08 08:39:31;;;;;;;6.07;1.85;;;12.50;86.50;;;;;;5048829;28;20109;-84
2021/04/08 08:41:59;;;;;;;5.28;1.95;;;12.30;87.50;;;;;;5047697;28;20116;-84
2021/04/08 08:44:26;;;;;;;9.88;1.77;;;12.30;87.70;;;;;;5031084;28;20485;-84
2021/04/08 08:47:18;;;;;;;13.88;2.60;;;12.40;88.10;;;;;;5047790;28;20024;-85
2021/04/08 08:49:53;;;;;;;3.75;1.30;;;12.60;87.80;;;;;;5048838;28;20460;-86
2021/04/08 08:52:22;;;;;;;6.60;1.38;;;12.70;86.60;;;;;;5046963;28;20328;-85
2021/04/08 08:54:49;;;;;;;6.03;2.25;;;12.80;86.40;;;;;;5046833;28;20548;-84
2021/04/08 08:57:16;;;;;;;8.88;3.03;;;12.90;86.30;;;;;;5030841;28;20042;-83
2021/04/08 08:59:45;;;;;;;11.32;2.63;;;13.00;85.40;;;;;;5030957;28;20355;-82
2021/04/08 09:02:12;;;;;;;3.72;1.42;;;13.00;84.30;;;;;;5047409;28;20120;-85
2021/04/08 09:04:38;;;;;;;4.68;1.52;;;13.00;84.00;;;;;;5047405;28;20439;-85
2021/04/08 09:07:09;;;;;;;7.57;1.45;;;12.90;83.40;;;;;;5048676;28;20021;-85
2021/04/08 09:09:41;;;;;;;6.03;1.30;;;12.90;83.30;;;;;;5046484;28;20029;-85
2021/04/08 09:12:14;;;;;;;4.55;1.40;;;12.80;82.50;;;;;;5047243;28;20111;-86
2021/04/08 09:14:40;;;;;;;7.80;1.60;;;12.70;82.70;;;;;;5016087;28;20502;-86
2021/04/08 09:17:06;;;;;;;10.15;1.60;;;12.80;82.60;;;;;;5030584;28;20037;-75
2021/04/08 09:19:33;;;;;;;5.55;1.42;;;12.70;82.10;;;;;;5047263;28;20032;-86
2021/04/08 09:22:06;;;;;;;10.50;2.22;;;12.50;82.00;;;;;;5047013;28;20112;-84
2021/04/08 09:24:46;;;;;;;5.30;1.80;;;12.50;82.70;;;;;;5047337;28;20039;-87
2021/04/08 09:27:12;;;;;;;3.13;1.55;;;12.40;82.70;;;;;;5046341;28;20411;-84
2021/04/08 09:29:39;;;;;;;7.15;1.75;;;12.40;82.90;;;;;;5030326;28;20041;-84
2021/04/08 09:32:45;;;;;;;8.15;1.70;;;12.40;82.60;;;;;;5046715;28;20049;-85
2021/04/08 09:35:16;;;;;;;5.20;1.60;;;12.40;82.60;;;;;;5047660;28;20527;-85
2021/04/08 09:37:48;;;;;;;5.40;1.30;;;12.60;82.80;;;;;;5046267;28;20025;-84
2021/04/08 09:40:31;;;;;;;3.97;1.40;;;12.90;83.30;;;;;;5049041;28;20096;-83
2021/04/08 09:43:03;;;;;;;8.88;1.88;;;13.40;83.00;;;;;;5050221;28;20079;-84
2021/04/08 09:45:30;;;;;;;4.97;1.70;;;13.70;82.00;;;;;;5051186;28;20388;-86
2021/04/08 09:48:12;;;;;;;23.85;4.78;;;13.90;79.70;;;;;;5049880;28;20033;-85
2021/04/08 09:50:53;;;;;;;12.57;2.30;;;13.60;78.60;;;;;;5033774;28;20366;-84
2021/04/08 09:53:28;;;;;;;4.32;1.42;;;13.40;78.70;;;;;;5048726;28;20032;-87
2021/04/08 09:55:59;;;;;;;7.25;2.72;;;13.20;78.40;;;;;;5049256;28;20072;-85
2021/04/08 09:58:30;;;;;;;7.20;2.08;;;12.90;78.70;;;;;;5049792;28;20025;-86
2021/04/08 10:00:59;;;;;;;6.50;1.85;;;12.80;79.60;;;;;;5049770;28;20025;-85
2021/04/08 10:03:38;;;;;;;7.95;1.80;;;13.00;80.70;;;;;;5049949;28;20250;-82
2021/04/08 10:06:24;;;;;;;9.45;3.70;;;13.10;79.80;;;;;;5034501;28;20036;-86
2021/04/08 10:08:51;;;;;;;6.40;2.05;;;13.20;78.70;;;;;;5049901;28;20039;-84
2021/04/08 10:11:30;;;;;;;5.80;1.88;;;13.30;79.30;;;;;;5051182;28;20033;-84
2021/04/08 10:13:56;;;;;;;7.13;2.40;;;13.40;78.10;;;;;;5035046;28;20036;-84
2021/04/08 10:16:22;;;;;;;10.98;2.20;;;13.30;77.30;;;;;;5051903;28;20029;-84
2021/04/08 10:18:59;;;;;;;7.38;1.88;;;13.00;77.00;;;;;;5017524;28;20385;-87
2021/04/08 10:21:25;;;;;;;10.18;2.22;;;12.70;77.50;;;;;;5051259;28;20017;-82
2021/04/08 10:23:52;;;;;;;5.45;1.90;;;12.80;78.10;;;;;;5032849;28;20115;-84
2021/04/08 10:26:21;;;;;;;6.72;2.33;;;13.00;79.20;;;;;;5016140;28;20043;-85
2021/04/08 10:28:53;;;;;;;11.43;2.42;;;13.40;78.90;;;;;;5048927;28;20067;-85
2021/04/08 10:31:24;;;;;;;5.05;1.67;;;13.80;78.30;;;;;;5049172;28;20027;-85
2021/04/08 10:33:55;;;;;;;5.47;1.40;;;14.20;77.60;;;;;;5049534;28;20080;-85
2021/04/08 10:36:27;;;;;;;7.30;2.30;;;14.40;75.30;;;;;;5050714;28;20044;-84
2021/04/08 10:39:19;;;;;;;4.78;1.80;;;14.10;73.70;;;;;;5032642;28;20056;-87
2021/04/08 10:42:00;;;;;;;9.88;2.35;;;13.60;73.80;;;;;;5050387;28;20059;-86
2021/04/08 10:44:37;;;;;;;3.90;1.90;;;13.20;74.40;;;;;;5050732;28;20055;-84
2021/04/08 10:47:09;;;;;;;3.65;1.92;;;13.00;75.10;;;;;;5033513;28;20032;-87
2021/04/08 10:49:52;;;;;;;5.43;2.28;;;13.50;77.40;;;;;;5049498;28;20453;-85
2021/04/08 10:52:18;;;;;;;5.32;1.77;;;14.30;76.30;;;;;;5049063;28;20028;-84
2021/04/08 10:54:51;;;;;;;6.75;2.40;;;14.70;74.20;;;;;;5051506;28;20029;-83
2021/04/08 10:57:17;;;;;;;9.77;2.42;;;14.80;73.10;;;;;;5050855;28;20025;-85
2021/04/08 10:59:45;;;;;;;7.93;2.20;;;15.10;72.80;;;;;;5049310;28;20051;-84
2021/04/08 11:02:19;;;;;;;7.10;2.10;;;15.40;72.60;;;;;;5031626;28;20059;-86
2021/04/08 11:04:45;;;;;;;3.00;0.95;;;16.00;71.50;;;;;;5048306;28;20387;-84
2021/04/08 11:07:11;;;;;;;8.80;1.60;;;16.30;69.60;;;;;;5047715;28;20079;-82
2021/04/08 11:09:36;;;;;;;14.60;1.40;;;16.30;68.20;;;;;;5048595;28;20029;-86
2021/04/08 11:12:16;;;;;;;5.40;1.30;;;16.10;67.50;;;;;;5032006;28;20067;-85
2021/04/08 11:14:47;;;;;;;3.53;1.50;;;16.00;67.10;;;;;;5047845;28;20025;-85
2021/04/08 11:17:14;;;;;;;8.90;1.55;;;16.10;67.20;;;;;;5031540;28;20379;-85
2021/04/08 11:19:41;;;;;;;2.95;1.25;;;16.10;66.30;;;;;;5047976;28;20070;-85
2021/04/08 11:22:14;;;;;;;4.35;1.10;;;15.90;65.80;;;;;;5048206;28;20050;-85
2021/04/08 11:24:41;;;;;;;2.35;1.23;;;15.80;65.90;;;;;;5047873;28;20033;-85
2021/04/08 11:27:08;;;;;;;8.07;1.65;;;15.70;65.40;;;;;;5031066;28;20033;-84
2021/04/08 11:29:33;;;;;;;7.47;3.10;;;15.50;65.40;;;;;;5014767;28;20048;-86
2021/04/08 11:32:07;;;;;;;5.28;1.88;;;15.20;65.60;;;;;;5031024;28;20053;-87
2021/04/08 11:34:43;;;;;;;9.77;2.63;;;15.10;66.20;;;;;;5049374;28;20045;-86
2021/04/08 11:37:09;;;;;;;3.55;1.80;;;15.20;65.90;;;;;;5047996;28;20025;-86
2021/04/08 11:39:35;;;;;;;6.25;1.67;;;15.30;66.10;;;;;;5014290;28;20069;-84
2021/04/08 11:42:22;;;;;;;2.95;1.63;;;15.50;65.80;;;;;;5030120;28;20041;-86
2021/04/08 11:44:49;;;;;;;7.70;1.40;;;15.90;66.40;;;;;;5047291;28;20025;-85
2021/04/08 11:47:21;;;;;;;6.70;1.77;;;16.50;65.70;;;;;;5047784;28;20083;-84
2021/04/08 11:49:52;;;;;;;5.97;1.77;;;16.50;63.70;;;;;;5047885;28;20025;-83
2021/04/08 11:52:23;;;;;;;4.50;1.23;;;16.30;62.80;;;;;;5049139;28;20032;-84
2021/04/08 11:54:58;;;;;;;5.13;1.92;;;16.00;62.10;;;;;;5048076;28;20518;-85
2021/04/08 11:57:24;;;;;;;10.88;1.92;;;15.50;62.50;;;;;;5047155;28;20078;-85
2021/04/08 11:59:50;;;;;;;3.75;2.00;;;15.20;63.00;;;;;;5031381;28;20559;-87
2021/04/08 12:02:33;;;;;;;3.05;1.50;;;15.10;63.40;;;;;;5047169;28;20523;-88
2021/04/08 12:05:00;;;;;;;9.25;1.75;;;14.80;63.60;;;;;;5047824;28;20033;-84
2021/04/08 12:07:26;;;;;;;4.20;1.33;;;14.60;63.70;;;;;;5031713;28;20038;-86
2021/04/08 12:09:53;;;;;;;3.20;1.25;;;14.30;64.20;;;;;;5047713;28;20043;-84
2021/04/08 12:12:28;;;;;;;4.18;1.20;;;13.90;65.10;;;;;;5031591;28;20394;-86
2021/04/08 12:15:03;;;;;;;4.10;2.25;;;13.40;66.50;;;;;;5048462;28;20070;-83
2021/04/08 12:17:30;;;;;;;4.60;2.10;;;13.20;68.60;;;;;;5048926;28;20522;-86
2021/04/08 12:20:18;;;;;;;6.88;1.92;;;13.30;70.10;;;;;;5031231;28;20033;-85
2021/04/08 12:22:44;;;;;;;8.30;2.00;;;13.80;70.50;;;;;;5031661;28;20112;-87
2021/04/08 12:25:17;;;;;;;4.47;1.50;;;14.30;70.00;;;;;;5032197;28;20538;-85
2021/04/08 12:27:43;;;;;;;2.38;1.00;;;14.90;70.10;;;;;;5048017;28;20036;-85
2021/04/08 12:30:11;;;;;;;6.40;3.15;;;15.50;69.40;;;;;;5047796;28;20036;-85
2021/04/08 12:32:37;;;;;;;5.13;1.52;;;16.00;67.90;;;;;;5048342;28;20045;-85
2021/04/08 12:35:06;;;;;;;4.80;1.80;;;16.10;65.40;;;;;;5047619;28;20169;-88
2021/04/08 12:37:31;;;;;;;6.18;1.98;;;15.80;64.50;;;;;;5049850;28;20059;-85
2021/04/08 12:39:57;;;;;;;3.25;1.48;;;15.40;64.40;;;;;;5018018;28;20033;-85
2021/04/08 12:42:23;;;;;;;3.70;1.00;;;15.00;65.20;;;;;;5032070;28;20082;-87
2021/04/08 12:44:49;;;;;;;5.63;1.08;;;14.80;65.50;;;;;;5032218;28;20029;-86
2021/04/08 12:47:15;;;;;;;3.05;1.20;;;14.60;65.20;;;;;;5048789;28;20036;-84
2021/04/08 12:49:41;;;;;;;6.13;2.30;;;14.40;66.00;;;;;;5032038;28;20045;-84
2021/04/08 12:52:07;;;;;;;8.15;2.45;;;14.20;66.90;;;;;;5032163;28;20029;-83
2021/04/08 12:54:33;;;;;;;2.50;1.55;;;14.10;68.10;;;;;;5032236;28;20129;-85
2021/04/08 12:56:59;;;;;;;4.50;1.33;;;14.10;69.40;;;;;;5032877;28;20284;-84
2021/04/08 12:59:25;;;;;;;2.70;1.50;;;14.70;70.70;;;;;;5049764;28;20217;-84
2021/04/08 13:01:51;;;;;;;5.78;1.90;;;15.40;70.50;;;;;;5033800;28;20479;-86